sensor_id;sensor_type;location;lat;lon;timestamp;temperature;humidity
1702;DHT22;848;48.354;10.064;2024-03-08T00:01:17;3.80;99.90
1702;DHT22;848;48.354;10.064;2024-03-08T00:03:44;3.80;99.90
1702;DHT22;848;48.354;10.064;2024-03-08T00:06:11;3.80;99.90
1702;DHT22;848;48.354;10.064;2024-03-08T00:08:39;3.70;99.90
1702;DHT22;848;48.354;10.064;2024-03-08T00:11:05;3.70;99.90
1702;DHT22;848;48.354;10.064;2024-03-08T00:13:33;3.70;99.90
1702;DHT22;848;48.354;10.064;2024-03-08T00:16:00;3.70;99.90
1702;DHT22;848;48.354;10.064;2024-03-08T00:18:29;3.60;99.90
1702;DHT22;848;48.354;10.064;2024-03-08T00:20:56;3.80;99.90
1702;DHT22;848;48.354;10.064;2024-03-08T00:23:22;3.60;99.90
1702;DHT22;848;48.354;10.064;2024-03-08T00:25:50;3.60;99.90
1702;DHT22;848;48.354;10.064;2024-03-08T00:28:16;3.50;99.90
1702;DHT22;848;48.354;10.064;2024-03-08T00:30:44;3.60;99.90
1702;DHT22;848;48.354;10.064;2024-03-08T00:33:12;3.60;99.90
1702;DHT22;848;48.354;10.064;2024-03-08T00:35:40;3.50;99.90
1702;DHT22;848;48.354;10.064;2024-03-08T00:38:07;3.50;99.90
1702;DHT22;848;48.354;10.064;2024-03-08T00:40:34;3.50;99.90
1702;DHT22;848;48.354;10.064;2024-03-08T00:43:00;3.50;99.90
1702;DHT22;848;48.354;10.064;2024-03-08T00:45:29;3.50;99.90
1702;DHT22;848;48.354;10.064;2024-03-08T00:47:56;3.50;99.90
1702;DHT22;848;48.354;10.064;2024-03-08T00:50:23;3.50;99.90
1702;DHT22;848;48.354;10.064;2024-03-08T00:52:51;3.50;99.90
1702;DHT22;848;48.354;10.064;2024-03-08T00:55:18;3.50;99.90
1702;DHT22;848;48.354;10.064;2024-03-08T00:57:45;3.40;99.90
1702;DHT22;848;48.354;10.064;2024-03-08T01:00:12;3.40;99.90
1702;DHT22;848;48.354;10.064;2024-03-08T01:04:28;3.40;99.90
1702;DHT22;848;48.354;10.064;2024-03-08T01:06:55;3.30;99.90
1702;DHT22;848;48.354;10.064;2024-03-08T01:09:22;3.30;99.90
1702;DHT22;848;48.354;10.064;2024-03-08T01:11:49;3.30;99.90
1702;DHT22;848;48.354;10.064;2024-03-08T01:14:16;3.20;99.90
1702;DHT22;848;48.354;10.064;2024-03-08T01:16:43;3.20;99.90
1702;DHT22;848;48.354;10.064;2024-03-08T01:19:10;3.20;99.90
1702;DHT22;848;48.354;10.064;2024-03-08T01:21:38;3.20;99.90
1702;DHT22;848;48.354;10.064;2024-03-08T01:24:05;3.10;99.90
1702;DHT22;848;48.354;10.064;2024-03-08T01:26:32;3.10;99.90
1702;DHT22;848;48.354;10.064;2024-03-08T01:28:59;3.10;99.90
1702;DHT22;848;48.354;10.064;2024-03-08T01:31:28;3.10;99.90
1702;DHT22;848;48.354;10.064;2024-03-08T01:33:55;3.10;99.90
1702;DHT22;848;48.354;10.064;2024-03-08T01:36:22;3.20;99.90
1702;DHT22;848;48.354;10.064;2024-03-08T01:38:52;3.20;99.90
1702;DHT22;848;48.354;10.064;2024-03-08T01:41:19;3.20;99.90
1702;DHT22;848;48.354;10.064;2024-03-08T01:43:46;3.20;99.90
1702;DHT22;848;48.354;10.064;2024-03-08T01:46:18;3.20;99.90
1702;DHT22;848;48.354;10.064;2024-03-08T01:48:47;3.10;99.90
1702;DHT22;848;48.354;10.064;2024-03-08T01:51:16;3.10;99.90
1702;DHT22;848;48.354;10.064;2024-03-08T01:53:45;3.10;99.90
1702;DHT22;848;48.354;10.064;2024-03-08T01:56:14;3.00;99.90
1702;DHT22;848;48.354;10.064;2024-03-08T01:58:41;3.00;99.90
1702;DHT22;848;48.354;10.064;2024-03-08T02:01:11;2.90;99.90
1702;DHT22;848;48.354;10.064;2024-03-08T02:03:38;2.90;99.90
1702;DHT22;848;48.354;10.064;2024-03-08T02:06:05;2.80;99.90
1702;DHT22;848;48.354;10.064;2024-03-08T02:08:35;2.80;99.90
1702;DHT22;848;48.354;10.064;2024-03-08T02:11:02;2.70;99.90
1702;DHT22;848;48.354;10.064;2024-03-08T02:13:31;2.70;99.90
1702;DHT22;848;48.354;10.064;2024-03-08T02:16:00;2.70;99.90
1702;DHT22;848;48.354;10.064;2024-03-08T02:18:28;2.70;99.90
1702;DHT22;848;48.354;10.064;2024-03-08T02:20:58;2.70;99.90
1702;DHT22;848;48.354;10.064;2024-03-08T02:23:26;2.70;99.90
1702;DHT22;848;48.354;10.064;2024-03-08T02:25:53;2.70;99.90
1702;DHT22;848;48.354;10.064;2024-03-08T02:28:21;2.70;99.90
1702;DHT22;848;48.354;10.064;2024-03-08T02:30:48;2.70;99.90
1702;DHT22;848;48.354;10.064;2024-03-08T02:33:17;2.70;99.90
1702;DHT22;848;48.354;10.064;2024-03-08T02:35:45;2.70;99.90
1702;DHT22;848;48.354;10.064;2024-03-08T02:38:14;2.70;99.90
1702;DHT22;848;48.354;10.064;2024-03-08T02:40:42;2.80;99.90
1702;DHT22;848;48.354;10.064;2024-03-08T02:43:09;2.70;99.90
1702;DHT22;848;48.354;10.064;2024-03-08T02:45:36;2.70;99.90
1702;DHT22;848;48.354;10.064;2024-03-08T02:48:05;2.70;99.90
1702;DHT22;848;48.354;10.064;2024-03-08T02:50:32;2.70;99.90
1702;DHT22;848;48.354;10.064;2024-03-08T02:53:00;2.60;99.90
1702;DHT22;848;48.354;10.064;2024-03-08T02:55:28;2.60;99.90
1702;DHT22;848;48.354;10.064;2024-03-08T02:57:55;2.60;99.90
1702;DHT22;848;48.354;10.064;2024-03-08T03:00:23;2.60;99.90
1702;DHT22;848;48.354;10.064;2024-03-08T03:02:50;2.60;99.90
1702;DHT22;848;48.354;10.064;2024-03-08T03:05:19;2.60;99.90
1702;DHT22;848;48.354;10.064;2024-03-08T03:07:46;2.60;99.90
1702;DHT22;848;48.354;10.064;2024-03-08T03:10:14;2.60;99.90
1702;DHT22;848;48.354;10.064;2024-03-08T03:12:44;2.60;99.90
1702;DHT22;848;48.354;10.064;2024-03-08T03:15:11;2.50;99.90
1702;DHT22;848;48.354;10.064;2024-03-08T03:17:38;2.50;99.90
1702;DHT22;848;48.354;10.064;2024-03-08T03:20:07;2.50;99.90
1702;DHT22;848;48.354;10.064;2024-03-08T03:22:38;2.60;99.90
1702;DHT22;848;48.354;10.064;2024-03-08T03:25:07;2.50;99.90
1702;DHT22;848;48.354;10.064;2024-03-08T03:27:35;2.50;99.90
1702;DHT22;848;48.354;10.064;2024-03-08T03:30:04;2.50;99.90
1702;DHT22;848;48.354;10.064;2024-03-08T03:32:58;2.50;99.90
1702;DHT22;848;48.354;10.064;2024-03-08T03:35:26;2.50;99.90
1702;DHT22;848;48.354;10.064;2024-03-08T03:37:53;2.50;99.90
1702;DHT22;848;48.354;10.064;2024-03-08T03:40:31;2.60;99.90
1702;DHT22;848;48.354;10.064;2024-03-08T03:42:58;2.60;99.90
1702;DHT22;848;48.354;10.064;2024-03-08T03:45:25;2.60;99.90
1702;DHT22;848;48.354;10.064;2024-03-08T03:47:52;2.60;99.90
1702;DHT22;848;48.354;10.064;2024-03-08T03:50:21;2.70;99.90
1702;DHT22;848;48.354;10.064;2024-03-08T03:52:49;2.70;99.90
1702;DHT22;848;48.354;10.064;2024-03-08T03:55:16;2.80;99.90
1702;DHT22;848;48.354;10.064;2024-03-08T03:57:43;2.80;99.90
1702;DHT22;848;48.354;10.064;2024-03-08T04:00:12;2.80;99.90
1702;DHT22;848;48.354;10.064;2024-03-08T04:02:39;2.80;99.90
1702;DHT22;848;48.354;10.064;2024-03-08T04:05:08;2.90;99.90
1702;DHT22;848;48.354;10.064;2024-03-08T04:07:37;2.90;99.90
1702;DHT22;848;48.354;10.064;2024-03-08T04:10:05;2.90;99.90
1702;DHT22;848;48.354;10.064;2024-03-08T04:12:32;3.00;99.90
1702;DHT22;848;48.354;10.064;2024-03-08T04:14:59;3.00;99.90
1702;DHT22;848;48.354;10.064;2024-03-08T04:17:26;3.00;99.90
1702;DHT22;848;48.354;10.064;2024-03-08T04:19:53;3.00;99.90
1702;DHT22;848;48.354;10.064;2024-03-08T04:22:20;3.10;99.90
1702;DHT22;848;48.354;10.064;2024-03-08T04:24:49;3.10;99.90
1702;DHT22;848;48.354;10.064;2024-03-08T04:27:16;3.20;99.90
1702;DHT22;848;48.354;10.064;2024-03-08T04:29:43;3.10;99.90
1702;DHT22;848;48.354;10.064;2024-03-08T04:32:11;3.10;99.90
1702;DHT22;848;48.354;10.064;2024-03-08T04:34:39;3.10;99.90
1702;DHT22;848;48.354;10.064;2024-03-08T04:37:06;3.00;99.90
1702;DHT22;848;48.354;10.064;2024-03-08T04:39:32;3.00;99.90
1702;DHT22;848;48.354;10.064;2024-03-08T04:42:02;3.00;99.90
1702;DHT22;848;48.354;10.064;2024-03-08T04:44:32;2.90;99.90
1702;DHT22;848;48.354;10.064;2024-03-08T04:47:00;2.90;99.90
1702;DHT22;848;48.354;10.064;2024-03-08T04:49:27;3.00;99.90
1702;DHT22;848;48.354;10.064;2024-03-08T04:51:54;2.90;99.90
1702;DHT22;848;48.354;10.064;2024-03-08T04:54:21;2.90;99.90
1702;DHT22;848;48.354;10.064;2024-03-08T04:56:49;2.80;99.90
1702;DHT22;848;48.354;10.064;2024-03-08T04:59:17;2.50;99.90
1702;DHT22;848;48.354;10.064;2024-03-08T05:01:44;2.40;99.90
1702;DHT22;848;48.354;10.064;2024-03-08T05:04:11;2.20;99.90
1702;DHT22;848;48.354;10.064;2024-03-08T05:06:38;2.30;99.90
1702;DHT22;848;48.354;10.064;2024-03-08T05:09:05;2.30;99.90
1702;DHT22;848;48.354;10.064;2024-03-08T05:11:39;2.30;99.90
1702;DHT22;848;48.354;10.064;2024-03-08T05:14:05;2.30;99.90
1702;DHT22;848;48.354;10.064;2024-03-08T05:16:34;2.10;99.90
1702;DHT22;848;48.354;10.064;2024-03-08T05:19:01;2.10;99.90
1702;DHT22;848;48.354;10.064;2024-03-08T05:21:28;2.00;99.90
1702;DHT22;848;48.354;10.064;2024-03-08T05:23:55;1.80;99.90
1702;DHT22;848;48.354;10.064;2024-03-08T05:26:22;1.70;99.90
1702;DHT22;848;48.354;10.064;2024-03-08T05:28:49;1.90;99.90
1702;DHT22;848;48.354;10.064;2024-03-08T05:31:19;2.00;99.90
1702;DHT22;848;48.354;10.064;2024-03-08T05:33:47;2.00;99.90
1702;DHT22;848;48.354;10.064;2024-03-08T05:36:14;2.10;99.90
1702;DHT22;848;48.354;10.064;2024-03-08T05:38:42;2.10;99.90
1702;DHT22;848;48.354;10.064;2024-03-08T05:41:09;2.10;99.90
1702;DHT22;848;48.354;10.064;2024-03-08T05:43:37;2.00;99.90
1702;DHT22;848;48.354;10.064;2024-03-08T05:46:16;2.00;99.90
1702;DHT22;848;48.354;10.064;2024-03-08T05:48:43;2.10;99.90
1702;DHT22;848;48.354;10.064;2024-03-08T05:51:10;2.00;99.90
1702;DHT22;848;48.354;10.064;2024-03-08T05:54:15;2.00;99.90
1702;DHT22;848;48.354;10.064;2024-03-08T05:56:41;2.00;99.90
1702;DHT22;848;48.354;10.064;2024-03-08T05:59:09;2.00;99.90
1702;DHT22;848;48.354;10.064;2024-03-08T06:01:36;1.90;99.90
1702;DHT22;848;48.354;10.064;2024-03-08T06:04:04;1.80;99.90
1702;DHT22;848;48.354;10.064;2024-03-08T06:06:31;1.90;99.90
1702;DHT22;848;48.354;10.064;2024-03-08T06:08:58;1.90;99.90
1702;DHT22;848;48.354;10.064;2024-03-08T06:11:26;1.90;99.90
1702;DHT22;848;48.354;10.064;2024-03-08T06:13:53;1.70;99.90
1702;DHT22;848;48.354;10.064;2024-03-08T06:16:25;1.70;99.90
1702;DHT22;848;48.354;10.064;2024-03-08T06:18:55;1.80;99.90
1702;DHT22;848;48.354;10.064;2024-03-08T06:21:23;2.00;99.90
1702;DHT22;848;48.354;10.064;2024-03-08T06:23:52;2.20;99.90
1702;DHT22;848;48.354;10.064;2024-03-08T06:26:20;2.30;99.90
1702;DHT22;848;48.354;10.064;2024-03-08T06:28:48;2.40;99.90
1702;DHT22;848;48.354;10.064;2024-03-08T06:31:16;2.50;99.90
1702;DHT22;848;48.354;10.064;2024-03-08T06:33:43;2.50;99.90
1702;DHT22;848;48.354;10.064;2024-03-08T06:36:10;2.70;99.90
1702;DHT22;848;48.354;10.064;2024-03-08T06:38:41;2.70;99.90
1702;DHT22;848;48.354;10.064;2024-03-08T06:41:11;2.60;99.90
1702;DHT22;848;48.354;10.064;2024-03-08T06:43:41;2.70;99.90
1702;DHT22;848;48.354;10.064;2024-03-08T06:46:09;2.80;99.90
1702;DHT22;848;48.354;10.064;2024-03-08T06:48:38;2.80;99.90
1702;DHT22;848;48.354;10.064;2024-03-08T06:51:05;2.80;99.90
1702;DHT22;848;48.354;10.064;2024-03-08T06:53:32;2.70;99.90
1702;DHT22;848;48.354;10.064;2024-03-08T06:56:00;2.80;99.90
1702;DHT22;848;48.354;10.064;2024-03-08T06:58:27;2.80;99.90
1702;DHT22;848;48.354;10.064;2024-03-08T07:00:54;2.70;99.90
1702;DHT22;848;48.354;10.064;2024-03-08T07:03:25;2.80;99.90
1702;DHT22;848;48.354;10.064;2024-03-08T07:05:52;2.80;99.90
1702;DHT22;848;48.354;10.064;2024-03-08T07:08:20;2.80;99.90
1702;DHT22;848;48.354;10.064;2024-03-08T07:10:48;2.90;99.90
1702;DHT22;848;48.354;10.064;2024-03-08T07:13:15;2.90;99.90
1702;DHT22;848;48.354;10.064;2024-03-08T07:15:43;2.90;99.90
1702;DHT22;848;48.354;10.064;2024-03-08T07:18:11;3.00;99.90
1702;DHT22;848;48.354;10.064;2024-03-08T07:20:41;3.10;99.90
1702;DHT22;848;48.354;10.064;2024-03-08T07:23:09;3.10;99.90
1702;DHT22;848;48.354;10.064;2024-03-08T07:25:36;3.10;99.90
1702;DHT22;848;48.354;10.064;2024-03-08T07:28:04;3.10;99.90
1702;DHT22;848;48.354;10.064;2024-03-08T07:30:32;3.10;99.90
1702;DHT22;848;48.354;10.064;2024-03-08T07:33:17;2.70;99.90
1702;DHT22;848;48.354;10.064;2024-03-08T07:35:45;2.50;99.90
1702;DHT22;848;48.354;10.064;2024-03-08T07:38:12;2.50;99.90
1702;DHT22;848;48.354;10.064;2024-03-08T07:40:40;2.40;99.90
1702;DHT22;848;48.354;10.064;2024-03-08T07:43:10;2.30;99.90
1702;DHT22;848;48.354;10.064;2024-03-08T07:45:37;2.30;99.90
1702;DHT22;848;48.354;10.064;2024-03-08T07:48:04;2.40;99.90
1702;DHT22;848;48.354;10.064;2024-03-08T07:50:35;2.20;99.90
1702;DHT22;848;48.354;10.064;2024-03-08T07:53:04;2.20;99.90
1702;DHT22;848;48.354;10.064;2024-03-08T07:55:32;2.30;99.90
1702;DHT22;848;48.354;10.064;2024-03-08T07:57:59;2.40;99.90
1702;DHT22;848;48.354;10.064;2024-03-08T08:00:26;2.40;99.90
1702;DHT22;848;48.354;10.064;2024-03-08T08:02:53;2.40;99.90
1702;DHT22;848;48.354;10.064;2024-03-08T08:05:20;2.50;99.90
1702;DHT22;848;48.354;10.064;2024-03-08T08:07:47;2.60;99.90
1702;DHT22;848;48.354;10.064;2024-03-08T08:10:15;2.70;99.90
1702;DHT22;848;48.354;10.064;2024-03-08T08:12:44;2.80;99.90
1702;DHT22;848;48.354;10.064;2024-03-08T08:15:11;2.70;99.90
1702;DHT22;848;48.354;10.064;2024-03-08T08:17:40;2.60;99.90
1702;DHT22;848;48.354;10.064;2024-03-08T08:20:08;2.50;99.90
1702;DHT22;848;48.354;10.064;2024-03-08T08:22:37;2.70;99.90
1702;DHT22;848;48.354;10.064;2024-03-08T08:25:05;2.60;99.90
1702;DHT22;848;48.354;10.064;2024-03-08T08:27:33;2.70;99.90
1702;DHT22;848;48.354;10.064;2024-03-08T08:30:02;2.70;99.90
1702;DHT22;848;48.354;10.064;2024-03-08T08:32:30;2.70;99.90
1702;DHT22;848;48.354;10.064;2024-03-08T08:34:57;2.70;99.90
1702;DHT22;848;48.354;10.064;2024-03-08T08:37:25;2.60;99.90
1702;DHT22;848;48.354;10.064;2024-03-08T08:39:52;2.60;99.90
1702;DHT22;848;48.354;10.064;2024-03-08T08:42:18;2.70;99.90
1702;DHT22;848;48.354;10.064;2024-03-08T08:44:47;2.70;99.90
1702;DHT22;848;48.354;10.064;2024-03-08T08:47:15;2.80;99.90
1702;DHT22;848;48.354;10.064;2024-03-08T08:49:44;2.80;99.90
1702;DHT22;848;48.354;10.064;2024-03-08T08:52:12;2.90;99.90
1702;DHT22;848;48.354;10.064;2024-03-08T08:54:41;3.00;99.90
1702;DHT22;848;48.354;10.064;2024-03-08T08:57:08;3.20;99.90
1702;DHT22;848;48.354;10.064;2024-03-08T08:59:35;3.20;99.90
1702;DHT22;848;48.354;10.064;2024-03-08T09:02:03;3.30;99.90
1702;DHT22;848;48.354;10.064;2024-03-08T09:04:30;3.20;99.90
1702;DHT22;848;48.354;10.064;2024-03-08T09:06:57;3.20;99.90
1702;DHT22;848;48.354;10.064;2024-03-08T09:09:24;3.20;99.90
1702;DHT22;848;48.354;10.064;2024-03-08T09:11:51;3.30;99.90
1702;DHT22;848;48.354;10.064;2024-03-08T09:14:19;3.30;99.90
1702;DHT22;848;48.354;10.064;2024-03-08T09:16:46;3.40;99.90
1702;DHT22;848;48.354;10.064;2024-03-08T09:19:14;3.30;99.90
1702;DHT22;848;48.354;10.064;2024-03-08T09:21:42;3.30;99.90
1702;DHT22;848;48.354;10.064;2024-03-08T09:24:09;3.20;99.90
1702;DHT22;848;48.354;10.064;2024-03-08T09:26:36;3.10;99.90
1702;DHT22;848;48.354;10.064;2024-03-08T09:29:02;3.20;99.90
1702;DHT22;848;48.354;10.064;2024-03-08T09:31:30;3.20;99.90
1702;DHT22;848;48.354;10.064;2024-03-08T09:33:59;3.20;99.90
1702;DHT22;848;48.354;10.064;2024-03-08T09:36:28;3.40;99.90
1702;DHT22;848;48.354;10.064;2024-03-08T09:38:55;3.50;99.90
1702;DHT22;848;48.354;10.064;2024-03-08T09:41:22;3.60;99.90
1702;DHT22;848;48.354;10.064;2024-03-08T09:43:52;3.70;99.90
1702;DHT22;848;48.354;10.064;2024-03-08T09:46:19;3.90;99.90
1702;DHT22;848;48.354;10.064;2024-03-08T09:48:48;3.80;99.90
1702;DHT22;848;48.354;10.064;2024-03-08T09:51:16;3.80;99.90
1702;DHT22;848;48.354;10.064;2024-03-08T09:53:44;3.90;99.90
1702;DHT22;848;48.354;10.064;2024-03-08T09:56:12;3.80;99.90
1702;DHT22;848;48.354;10.064;2024-03-08T09:58:39;3.90;99.90
1702;DHT22;848;48.354;10.064;2024-03-08T10:01:40;3.80;99.90
1702;DHT22;848;48.354;10.064;2024-03-08T10:04:07;3.70;99.90
1702;DHT22;848;48.354;10.064;2024-03-08T10:06:35;3.70;99.90
1702;DHT22;848;48.354;10.064;2024-03-08T10:09:04;4.00;99.90
1702;DHT22;848;48.354;10.064;2024-03-08T10:11:33;3.80;99.90
1702;DHT22;848;48.354;10.064;2024-03-08T10:14:00;3.80;99.90
1702;DHT22;848;48.354;10.064;2024-03-08T10:16:28;3.70;99.90
1702;DHT22;848;48.354;10.064;2024-03-08T10:18:56;3.80;99.90
1702;DHT22;848;48.354;10.064;2024-03-08T10:21:23;3.90;99.90
1702;DHT22;848;48.354;10.064;2024-03-08T10:23:51;4.10;99.90
1702;DHT22;848;48.354;10.064;2024-03-08T10:26:19;4.10;99.90
1702;DHT22;848;48.354;10.064;2024-03-08T10:28:48;4.10;99.90
1702;DHT22;848;48.354;10.064;2024-03-08T10:31:15;4.10;99.90
1702;DHT22;848;48.354;10.064;2024-03-08T10:33:43;4.00;99.90
1702;DHT22;848;48.354;10.064;2024-03-08T10:36:10;4.20;99.90
1702;DHT22;848;48.354;10.064;2024-03-08T10:38:39;4.20;99.90
1702;DHT22;848;48.354;10.064;2024-03-08T10:41:08;4.10;99.90
1702;DHT22;848;48.354;10.064;2024-03-08T10:43:48;3.90;99.90
1702;DHT22;848;48.354;10.064;2024-03-08T10:46:25;3.80;99.90
1702;DHT22;848;48.354;10.064;2024-03-08T10:48:56;3.90;99.90
1702;DHT22;848;48.354;10.064;2024-03-08T10:51:25;4.00;99.90
1702;DHT22;848;48.354;10.064;2024-03-08T10:53:52;4.20;99.90
1702;DHT22;848;48.354;10.064;2024-03-08T10:56:20;4.30;99.90
1702;DHT22;848;48.354;10.064;2024-03-08T10:58:50;4.50;99.90
1702;DHT22;848;48.354;10.064;2024-03-08T11:01:17;4.40;99.90
1702;DHT22;848;48.354;10.064;2024-03-08T11:03:44;4.30;99.90
1702;DHT22;848;48.354;10.064;2024-03-08T11:06:15;4.40;99.90
1702;DHT22;848;48.354;10.064;2024-03-08T11:08:43;4.40;99.90
1702;DHT22;848;48.354;10.064;2024-03-08T11:11:24;4.40;99.90
1702;DHT22;848;48.354;10.064;2024-03-08T11:13:54;4.50;99.90
1702;DHT22;848;48.354;10.064;2024-03-08T11:16:37;4.40;99.90
1702;DHT22;848;48.354;10.064;2024-03-08T11:19:22;4.70;99.90
1702;DHT22;848;48.354;10.064;2024-03-08T11:22:01;4.90;99.90
1702;DHT22;848;48.354;10.064;2024-03-08T11:24:28;5.00;99.90
1702;DHT22;848;48.354;10.064;2024-03-08T11:27:03;5.10;99.90
1702;DHT22;848;48.354;10.064;2024-03-08T11:29:39;5.00;99.90
1702;DHT22;848;48.354;10.064;2024-03-08T11:32:11;5.10;99.90
1702;DHT22;848;48.354;10.064;2024-03-08T11:34:40;5.00;99.90
1702;DHT22;848;48.354;10.064;2024-03-08T11:37:12;5.00;99.90
1702;DHT22;848;48.354;10.064;2024-03-08T11:39:41;5.20;99.90
1702;DHT22;848;48.354;10.064;2024-03-08T11:42:12;5.30;99.90
1702;DHT22;848;48.354;10.064;2024-03-08T11:44:41;5.40;99.90
1702;DHT22;848;48.354;10.064;2024-03-08T11:47:10;5.30;99.90
1702;DHT22;848;48.354;10.064;2024-03-08T11:49:37;5.30;99.90
1702;DHT22;848;48.354;10.064;2024-03-08T11:52:04;5.40;99.90
1702;DHT22;848;48.354;10.064;2024-03-08T11:54:31;5.40;99.90
1702;DHT22;848;48.354;10.064;2024-03-08T11:57:00;5.40;99.90
1702;DHT22;848;48.354;10.064;2024-03-08T11:59:27;5.20;99.90
1702;DHT22;848;48.354;10.064;2024-03-08T12:02:01;5.30;99.90
1702;DHT22;848;48.354;10.064;2024-03-08T12:04:29;5.20;99.90
1702;DHT22;848;48.354;10.064;2024-03-08T12:07:00;5.40;99.90
1702;DHT22;848;48.354;10.064;2024-03-08T12:09:34;5.40;99.90
1702;DHT22;848;48.354;10.064;2024-03-08T12:12:01;5.30;99.90
1702;DHT22;848;48.354;10.064;2024-03-08T12:14:29;5.40;99.90
1702;DHT22;848;48.354;10.064;2024-03-08T12:16:57;5.60;99.90
1702;DHT22;848;48.354;10.064;2024-03-08T12:19:27;5.70;99.90
1702;DHT22;848;48.354;10.064;2024-03-08T12:21:54;5.70;99.90
1702;DHT22;848;48.354;10.064;2024-03-08T12:24:21;5.90;99.90
1702;DHT22;848;48.354;10.064;2024-03-08T12:26:49;6.00;99.90
1702;DHT22;848;48.354;10.064;2024-03-08T12:29:18;6.20;99.90
1702;DHT22;848;48.354;10.064;2024-03-08T12:31:48;6.30;99.90
1702;DHT22;848;48.354;10.064;2024-03-08T12:34:17;6.40;99.90
1702;DHT22;848;48.354;10.064;2024-03-08T12:36:46;6.50;99.90
1702;DHT22;848;48.354;10.064;2024-03-08T12:39:17;6.50;99.90
1702;DHT22;848;48.354;10.064;2024-03-08T12:41:48;6.50;99.90
1702;DHT22;848;48.354;10.064;2024-03-08T12:44:17;6.50;99.90
1702;DHT22;848;48.354;10.064;2024-03-08T12:46:44;6.40;99.90
1702;DHT22;848;48.354;10.064;2024-03-08T12:49:11;6.50;99.90
1702;DHT22;848;48.354;10.064;2024-03-08T12:51:38;6.50;99.90
1702;DHT22;848;48.354;10.064;2024-03-08T12:54:08;6.60;99.90
1702;DHT22;848;48.354;10.064;2024-03-08T12:56:35;6.70;99.90
1702;DHT22;848;48.354;10.064;2024-03-08T12:59:03;6.70;99.90
1702;DHT22;848;48.354;10.064;2024-03-08T13:01:31;6.70;99.90
1702;DHT22;848;48.354;10.064;2024-03-08T13:03:58;6.70;99.90
1702;DHT22;848;48.354;10.064;2024-03-08T13:06:26;6.70;99.90
1702;DHT22;848;48.354;10.064;2024-03-08T13:08:54;6.60;99.90
1702;DHT22;848;48.354;10.064;2024-03-08T13:11:23;6.70;99.90
1702;DHT22;848;48.354;10.064;2024-03-08T13:13:50;6.80;99.90
1702;DHT22;848;48.354;10.064;2024-03-08T13:16:18;6.70;99.90
1702;DHT22;848;48.354;10.064;2024-03-08T13:18:45;6.70;99.90
1702;DHT22;848;48.354;10.064;2024-03-08T13:21:14;6.80;99.90
1702;DHT22;848;48.354;10.064;2024-03-08T13:23:44;6.90;99.90
1702;DHT22;848;48.354;10.064;2024-03-08T13:26:15;7.00;99.90
1702;DHT22;848;48.354;10.064;2024-03-08T13:28:45;7.00;99.90
1702;DHT22;848;48.354;10.064;2024-03-08T13:31:14;7.20;99.90
1702;DHT22;848;48.354;10.064;2024-03-08T13:33:41;7.20;99.90
1702;DHT22;848;48.354;10.064;2024-03-08T13:36:11;7.30;99.90
1702;DHT22;848;48.354;10.064;2024-03-08T13:38:42;7.30;99.90
1702;DHT22;848;48.354;10.064;2024-03-08T13:41:09;7.30;99.90
1702;DHT22;848;48.354;10.064;2024-03-08T13:43:36;7.50;99.90
1702;DHT22;848;48.354;10.064;2024-03-08T13:46:05;7.60;99.90
1702;DHT22;848;48.354;10.064;2024-03-08T13:48:32;7.60;99.90
1702;DHT22;848;48.354;10.064;2024-03-08T13:50:59;7.60;99.90
1702;DHT22;848;48.354;10.064;2024-03-08T13:53:26;7.70;99.90
1702;DHT22;848;48.354;10.064;2024-03-08T13:55:53;7.70;99.90
1702;DHT22;848;48.354;10.064;2024-03-08T13:58:20;7.70;99.90
1702;DHT22;848;48.354;10.064;2024-03-08T14:00:47;7.90;99.90
1702;DHT22;848;48.354;10.064;2024-03-08T14:03:15;7.90;99.90
1702;DHT22;848;48.354;10.064;2024-03-08T14:05:42;8.00;99.90
1702;DHT22;848;48.354;10.064;2024-03-08T14:08:10;8.00;99.90
1702;DHT22;848;48.354;10.064;2024-03-08T14:10:38;8.00;99.90
1702;DHT22;848;48.354;10.064;2024-03-08T14:13:05;8.10;99.90
1702;DHT22;848;48.354;10.064;2024-03-08T14:15:32;8.10;99.90
1702;DHT22;848;48.354;10.064;2024-03-08T14:18:00;8.10;99.90
1702;DHT22;848;48.354;10.064;2024-03-08T14:20:29;8.20;99.90
1702;DHT22;848;48.354;10.064;2024-03-08T14:22:56;8.30;99.90
1702;DHT22;848;48.354;10.064;2024-03-08T14:25:23;8.30;99.90
1702;DHT22;848;48.354;10.064;2024-03-08T14:27:51;8.40;99.90
1702;DHT22;848;48.354;10.064;2024-03-08T14:30:19;8.40;99.90
1702;DHT22;848;48.354;10.064;2024-03-08T14:33:00;8.40;99.90
1702;DHT22;848;48.354;10.064;2024-03-08T14:35:28;8.40;99.90
1702;DHT22;848;48.354;10.064;2024-03-08T14:37:56;8.40;99.90
1702;DHT22;848;48.354;10.064;2024-03-08T14:40:23;8.50;99.90
1702;DHT22;848;48.354;10.064;2024-03-08T14:42:51;8.50;99.90
1702;DHT22;848;48.354;10.064;2024-03-08T14:45:19;8.50;99.90
1702;DHT22;848;48.354;10.064;2024-03-08T14:47:46;8.50;99.90
1702;DHT22;848;48.354;10.064;2024-03-08T14:50:16;8.60;99.90
1702;DHT22;848;48.354;10.064;2024-03-08T14:52:45;8.60;99.90
1702;DHT22;848;48.354;10.064;2024-03-08T14:55:14;8.70;99.90
1702;DHT22;848;48.354;10.064;2024-03-08T14:57:41;8.70;99.90
1702;DHT22;848;48.354;10.064;2024-03-08T15:00:11;8.70;99.90
1702;DHT22;848;48.354;10.064;2024-03-08T15:02:42;8.70;99.90
1702;DHT22;848;48.354;10.064;2024-03-08T15:05:09;8.80;99.90
1702;DHT22;848;48.354;10.064;2024-03-08T15:07:37;8.80;99.90
1702;DHT22;848;48.354;10.064;2024-03-08T15:10:08;8.80;99.90
1702;DHT22;848;48.354;10.064;2024-03-08T15:12:40;8.80;99.90
1702;DHT22;848;48.354;10.064;2024-03-08T15:15:08;8.80;99.90
1702;DHT22;848;48.354;10.064;2024-03-08T15:17:36;8.80;99.90
1702;DHT22;848;48.354;10.064;2024-03-08T15:20:06;8.90;99.90
1702;DHT22;848;48.354;10.064;2024-03-08T15:22:41;8.80;99.90
1702;DHT22;848;48.354;10.064;2024-03-08T15:25:10;8.80;99.90
1702;DHT22;848;48.354;10.064;2024-03-08T15:27:43;8.80;99.90
1702;DHT22;848;48.354;10.064;2024-03-08T15:30:10;8.80;99.90
1702;DHT22;848;48.354;10.064;2024-03-08T15:32:39;8.80;99.90
1702;DHT22;848;48.354;10.064;2024-03-08T15:35:07;8.80;99.90
1702;DHT22;848;48.354;10.064;2024-03-08T15:37:39;8.90;99.90
1702;DHT22;848;48.354;10.064;2024-03-08T15:40:10;8.90;99.90
1702;DHT22;848;48.354;10.064;2024-03-08T15:42:47;8.80;99.90
1702;DHT22;848;48.354;10.064;2024-03-08T15:45:15;8.80;99.90
1702;DHT22;848;48.354;10.064;2024-03-08T15:47:42;8.80;99.90
1702;DHT22;848;48.354;10.064;2024-03-08T15:50:10;8.80;99.90
1702;DHT22;848;48.354;10.064;2024-03-08T15:52:39;8.80;99.90
1702;DHT22;848;48.354;10.064;2024-03-08T15:55:07;8.80;99.90
1702;DHT22;848;48.354;10.064;2024-03-08T15:57:35;8.70;99.90
1702;DHT22;848;48.354;10.064;2024-03-08T16:00:03;8.70;99.90
1702;DHT22;848;48.354;10.064;2024-03-08T16:02:39;8.70;99.90
1702;DHT22;848;48.354;10.064;2024-03-08T16:05:10;8.70;99.90
1702;DHT22;848;48.354;10.064;2024-03-08T16:07:40;8.60;99.90
1702;DHT22;848;48.354;10.064;2024-03-08T16:10:08;8.60;99.90
1702;DHT22;848;48.354;10.064;2024-03-08T16:12:38;8.60;99.90
1702;DHT22;848;48.354;10.064;2024-03-08T16:15:08;8.50;99.90
1702;DHT22;848;48.354;10.064;2024-03-08T16:17:35;8.50;99.90
1702;DHT22;848;48.354;10.064;2024-03-08T16:20:02;8.40;99.90
1702;DHT22;848;48.354;10.064;2024-03-08T16:22:36;8.40;99.90
1702;DHT22;848;48.354;10.064;2024-03-08T16:25:05;8.30;99.90
1702;DHT22;848;48.354;10.064;2024-03-08T16:27:35;8.30;99.90